createdAt,value
2023-01-13T00:00:50.492Z,100168.66
2023-01-13T00:03:17.022Z,100166.63
2023-01-13T00:05:43.539Z,100162.88
2023-01-13T00:08:10.149Z,100165.13
2023-01-13T00:10:36.731Z,100149.53
2023-01-13T00:13:04.623Z,100159.72
2023-01-13T00:15:31.922Z,100158.06
2023-01-13T00:17:58.578Z,100159.94
2023-01-13T00:20:25.104Z,100151.00
2023-01-13T00:22:51.654Z,100145.81
2023-01-13T00:25:18.175Z,100146.84
2023-01-13T00:27:44.723Z,100137.50
2023-01-13T00:30:11.698Z,100140.00
2023-01-13T00:32:38.253Z,100139.56
2023-01-13T00:35:05.295Z,100134.53
2023-01-13T00:37:31.811Z,100139.16
2023-01-13T00:39:58.302Z,100131.94
2023-01-13T00:42:43.363Z,100132.56
2023-01-13T00:45:10.297Z,100125.91
2023-01-13T00:47:36.828Z,100125.09
2023-01-13T00:50:03.744Z,100126.38
2023-01-13T00:52:32.898Z,100132.81
2023-01-13T00:55:00.846Z,100123.66
2023-01-13T00:57:27.381Z,100126.16
2023-01-13T00:59:53.902Z,100128.03
2023-01-13T01:02:20.478Z,100133.00
2023-01-13T01:04:47.006Z,100132.81
2023-01-13T01:07:13.558Z,100123.88
2023-01-13T01:09:40.157Z,100136.34
2023-01-13T01:12:06.957Z,100136.13
2023-01-13T01:14:33.824Z,100138.84
2023-01-13T01:17:00.338Z,100132.59
2023-01-13T01:19:26.895Z,100135.31
2023-01-13T01:21:54.903Z,100137.59
2023-01-13T01:24:21.481Z,100133.44
2023-01-13T01:26:48.039Z,100136.97
2023-01-13T01:29:15.567Z,100140.50
2023-01-13T01:31:43.127Z,100135.94
2023-01-13T01:34:09.709Z,100127.44
2023-01-13T01:36:36.688Z,100130.13
2023-01-13T01:39:03.880Z,100133.47
2023-01-13T01:41:32.906Z,100136.38
2023-01-13T01:44:03.668Z,100129.09
2023-01-13T01:46:39.021Z,100127.44
2023-01-13T01:49:25.837Z,100123.47
2023-01-13T01:52:01.406Z,100119.09
2023-01-13T01:54:40.149Z,100124.50
2023-01-13T01:57:10.008Z,100118.06
2023-01-13T01:59:38.903Z,100121.78
2023-01-13T02:02:05.723Z,100116.41
2023-01-13T02:04:37.853Z,100108.28
2023-01-13T02:07:04.559Z,100107.88
2023-01-13T02:09:32.014Z,100103.50
2023-01-13T02:12:17.279Z,100108.91
2023-01-13T02:14:44.422Z,100104.56
2023-01-13T02:17:35.932Z,100099.78
2023-01-13T02:20:24.699Z,100103.94
2023-01-13T02:23:47.209Z,100093.75
2023-01-13T02:26:13.695Z,100097.69
2023-01-13T02:29:41.217Z,100095.81
2023-01-13T02:32:26.059Z,100089.81
2023-01-13T02:35:10.195Z,100088.56
2023-01-13T02:37:42.345Z,100092.72
2023-01-13T02:40:29.409Z,100085.25
2023-01-13T02:43:43.740Z,100092.53
2023-01-13T02:46:54.952Z,100079.19
2023-01-13T02:49:44.976Z,100082.72
2023-01-13T02:52:21.184Z,100084.44
2023-01-13T02:54:55.088Z,100080.91
2023-01-13T02:57:23.847Z,100081.53
2023-01-13T02:59:52.316Z,100084.22
2023-01-13T03:02:21.954Z,100084.19
2023-01-13T03:04:50.435Z,100082.31
2023-01-13T03:07:38.556Z,100081.06
2023-01-13T03:10:05.134Z,100079.63
2023-01-13T03:13:16.128Z,100080.84
2023-01-13T03:16:07.410Z,100077.50
2023-01-13T03:18:43.698Z,100086.03
2023-01-13T03:21:12.811Z,100072.13
2023-01-13T03:24:01.114Z,100072.94
2023-01-13T03:26:43.709Z,100076.25
2023-01-13T03:29:22.293Z,100084.56
2023-01-13T03:32:17.536Z,100077.72
2023-01-13T03:35:07.492Z,100078.34
2023-01-13T03:37:38.570Z,100078.34
2023-01-13T03:40:17.293Z,100074.41
2023-01-13T03:43:07.969Z,100077.72
2023-01-13T03:45:36.387Z,100073.78
2023-01-13T03:48:11.135Z,100078.72
2023-01-13T03:50:44.362Z,100080.78
2023-01-13T03:53:15.693Z,100071.66
2023-01-13T03:55:48.508Z,100074.16
2023-01-13T03:58:46.265Z,100077.47
2023-01-13T04:01:20.002Z,100071.41
2023-01-13T04:03:52.553Z,100072.69
2023-01-13T04:06:41.927Z,100075.19
2023-01-13T04:10:01.041Z,100072.28
2023-01-13T04:12:49.328Z,100078.94
2023-01-13T04:15:17.919Z,100075.63
2023-01-13T04:17:44.917Z,100072.53
2023-01-13T04:20:11.710Z,100067.75
2023-01-13T04:22:38.308Z,100073.97
2023-01-13T04:25:05.494Z,100064.84
2023-01-13T04:27:32.063Z,100066.06
2023-01-13T04:29:58.652Z,100075.97
2023-01-13T04:32:25.253Z,100066.66
2023-01-13T04:34:51.791Z,100065.78
2023-01-13T04:37:18.330Z,100058.72
2023-01-13T04:39:46.515Z,100060.38
2023-01-13T04:42:13.117Z,100058.72
2023-01-13T04:44:39.756Z,100063.91
2023-01-13T04:47:06.291Z,100060.78
2023-01-13T04:49:33.254Z,100062.31
2023-01-13T04:51:59.825Z,100064.59
2023-01-13T04:54:26.381Z,100064.38
2023-01-13T04:56:52.906Z,100056.50
2023-01-13T04:59:19.486Z,100051.72
2023-01-13T05:01:46.145Z,100055.22
2023-01-13T05:04:15.408Z,100063.97
2023-01-13T05:06:41.974Z,100063.13
2023-01-13T05:09:08.632Z,100052.53
2023-01-13T05:11:53.787Z,100049.66
2023-01-13T05:14:39.148Z,100049.81
2023-01-13T05:17:05.712Z,100049.19
2023-01-13T05:19:39.206Z,100056.91
2023-01-13T05:22:24.285Z,100051.91
2023-01-13T05:25:09.675Z,100053.75
2023-01-13T05:27:36.587Z,100060.19
2023-01-13T05:30:04.241Z,100061.91
2023-01-13T05:32:31.081Z,100060.44
2023-01-13T05:34:57.714Z,100063.56
2023-01-13T05:37:25.823Z,100061.06
2023-01-13T05:40:11.030Z,100064.81
2023-01-13T05:42:56.233Z,100063.75
2023-01-13T05:45:23.250Z,100065.44
2023-01-13T05:47:50.208Z,100069.38
2023-01-13T05:50:17.491Z,100070.00
2023-01-13T05:52:44.038Z,100068.97
2023-01-13T05:55:14.693Z,100070.00
2023-01-13T05:57:41.597Z,100086.00
2023-01-13T06:00:08.902Z,100084.31
2023-01-13T06:02:35.508Z,100092.00
2023-01-13T06:05:02.081Z,100084.75
2023-01-13T06:07:28.647Z,100087.84
2023-01-13T06:09:55.235Z,100087.28
2023-01-13T06:12:21.804Z,100100.97
2023-01-13T06:14:48.343Z,100094.13
2023-01-13T06:17:16.260Z,100100.56
2023-01-13T06:19:42.920Z,100097.03
2023-01-13T06:22:28.512Z,100093.72
2023-01-13T06:24:55.118Z,100098.28
2023-01-13T06:27:22.464Z,100103.47
2023-01-13T06:29:49.720Z,100091.00
2023-01-13T06:32:19.679Z,100096.41
2023-01-13T06:35:06.527Z,100097.63
2023-01-13T06:37:34.566Z,100101.16
2023-01-13T06:40:02.595Z,100100.53
2023-01-13T06:42:51.323Z,100101.97
2023-01-13T06:45:18.984Z,100107.38
2023-01-13T06:47:45.525Z,100108.44
2023-01-13T06:50:12.194Z,100095.16
2023-01-13T06:52:38.768Z,100111.78
2023-01-13T06:55:05.769Z,100120.72
2023-01-13T06:57:32.324Z,100111.38
2023-01-13T06:59:58.867Z,100112.03
2023-01-13T07:02:26.034Z,100121.16
2023-01-13T07:04:52.676Z,100120.34
2023-01-13T07:07:19.244Z,100138.22
2023-01-13T07:09:45.777Z,100140.06
2023-01-13T07:12:12.555Z,100140.13
2023-01-13T07:14:58.061Z,100147.63
2023-01-13T07:17:25.307Z,100140.56
2023-01-13T07:19:53.176Z,100133.28
2023-01-13T07:22:19.805Z,100136.59
2023-01-13T07:24:46.481Z,100138.88
2023-01-13T07:27:13.062Z,100149.25
2023-01-13T07:29:39.781Z,100167.13
2023-01-13T07:32:07.852Z,100168.34
2023-01-13T07:34:34.678Z,100172.09
2023-01-13T07:37:01.719Z,100184.97
2023-01-13T07:39:28.364Z,100190.34
2023-01-13T07:42:13.535Z,100188.69
2023-01-13T07:44:40.224Z,100185.38
2023-01-13T07:47:08.567Z,100181.00
2023-01-13T07:49:35.120Z,100168.97
2023-01-13T07:52:01.885Z,100166.66
2023-01-13T07:54:39.677Z,100162.31
2023-01-13T07:57:07.116Z,100156.28
2023-01-13T07:59:33.697Z,100142.56
2023-01-13T08:02:00.511Z,100149.84
2023-01-13T08:04:27.253Z,100138.22
2023-01-13T08:06:53.786Z,100137.38
2023-01-13T08:09:20.358Z,100136.75
2023-01-13T08:12:07.058Z,100138.22
2023-01-13T08:14:33.744Z,100144.22
2023-01-13T08:17:00.351Z,100157.13
2023-01-13T08:19:26.982Z,100150.66
2023-01-13T08:21:53.646Z,100160.03
2023-01-13T08:24:20.220Z,100169.16
2023-01-13T08:26:46.776Z,100181.84
2023-01-13T08:29:14.989Z,100188.06
2023-01-13T08:31:41.845Z,100195.97
2023-01-13T08:34:08.733Z,100206.16
2023-01-13T08:36:35.445Z,100213.63
2023-01-13T08:39:02.033Z,100197.22
2023-01-13T08:42:04.083Z,100187.81
2023-01-13T08:44:31.737Z,100195.72
2023-01-13T08:46:58.734Z,100189.94
2023-01-13T08:49:25.696Z,100184.97
2023-01-13T08:51:53.569Z,100187.19
2023-01-13T08:54:20.440Z,100193.84
2023-01-13T08:56:47.297Z,100189.28
2023-01-13T08:59:19.528Z,100189.47
2023-01-13T09:01:46.395Z,100204.44
2023-01-13T09:04:19.449Z,100210.25
2023-01-13T09:06:47.592Z,100201.72
2023-01-13T09:09:14.377Z,100188.03
2023-01-13T09:12:03.663Z,100183.91
2023-01-13T09:14:33.145Z,100208.00
2023-01-13T09:17:00.299Z,100205.03
2023-01-13T09:19:28.435Z,100206.09
2023-01-13T09:21:56.280Z,100209.22
2023-01-13T09:24:24.036Z,100207.94
2023-01-13T09:26:50.984Z,100211.44
2023-01-13T09:29:18.267Z,100194.00
2023-01-13T09:31:44.858Z,100189.06
2023-01-13T09:34:35.602Z,100173.47
2023-01-13T09:37:02.579Z,100171.59
2023-01-13T09:39:29.272Z,100172.44
2023-01-13T09:42:17.083Z,100169.09
2023-01-13T09:45:01.708Z,100156.25
2023-01-13T09:47:34.094Z,100141.47
2023-01-13T09:50:26.987Z,100129.22
2023-01-13T09:52:53.808Z,100129.22
2023-01-13T09:55:30.286Z,100117.59
2023-01-13T09:57:56.937Z,100127.78
2023-01-13T10:00:27.305Z,100139.22
2023-01-13T10:03:29.539Z,100143.81
2023-01-13T10:06:06.904Z,100166.25
2023-01-13T10:08:38.111Z,100171.44
2023-01-13T10:11:52.488Z,100181.63
2023-01-13T10:14:32.400Z,100184.34
2023-01-13T10:16:58.862Z,100174.53
2023-01-13T10:19:39.410Z,100181.00
2023-01-13T10:22:14.721Z,100183.09
2023-01-13T10:24:53.160Z,100161.47
2023-01-13T10:27:36.826Z,100176.63
2023-01-13T10:30:18.648Z,100163.72
2023-01-13T10:32:56.356Z,100153.16
2023-01-13T10:35:55.882Z,100160.63
2023-01-13T10:38:34.591Z,100159.16
2023-01-13T10:41:14.745Z,100157.09
2023-01-13T10:44:09.430Z,100139.66
2023-01-13T10:46:52.057Z,100165.84
2023-01-13T10:49:36.312Z,100168.34
2023-01-13T10:52:23.667Z,100166.69
2023-01-13T10:54:54.798Z,100182.28
2023-01-13T10:57:24.091Z,100185.41
2023-01-13T10:59:51.396Z,100176.91
2023-01-13T11:02:38.747Z,100185.78
2023-01-13T11:05:24.934Z,100177.09
2023-01-13T11:07:54.962Z,100177.91
2023-01-13T11:10:31.387Z,100177.25
2023-01-13T11:13:23.949Z,100168.53
2023-01-13T11:15:57.441Z,100170.63
2023-01-13T11:19:11.805Z,100176.19
2023-01-13T11:22:20.539Z,100180.38
2023-01-13T11:25:02.692Z,100189.13
2023-01-13T11:27:53.198Z,100190.41
2023-01-13T11:30:41.232Z,100192.31
2023-01-13T11:33:10.986Z,100197.72
2023-01-13T11:35:45.621Z,100203.34
2023-01-13T11:38:28.670Z,100195.44
2023-01-13T11:41:00.395Z,100192.06
2023-01-13T11:43:36.315Z,100191.84
2023-01-13T11:46:03.074Z,100186.63
2023-01-13T11:48:35.582Z,100194.94
2023-01-13T11:51:11.029Z,100189.31
2023-01-13T11:54:15.151Z,100185.16
2023-01-13T11:56:44.770Z,100191.56
2023-01-13T11:59:25.208Z,100184.75
2023-01-13T12:02:26.154Z,100187.50
2023-01-13T12:04:58.219Z,100188.53
2023-01-13T12:07:40.268Z,100199.72
2023-01-13T12:10:15.217Z,100200.13
2023-01-13T12:12:44.615Z,100194.31
2023-01-13T12:15:20.396Z,100193.06
2023-01-13T12:18:25.184Z,100191.22
2023-01-13T12:20:54.857Z,100198.88
2023-01-13T12:23:57.629Z,100203.50
2023-01-13T12:26:24.821Z,100200.00
2023-01-13T12:29:03.119Z,100194.41
2023-01-13T12:31:31.967Z,100199.13
2023-01-13T12:34:26.553Z,100197.13
2023-01-13T12:37:20.759Z,100195.50
2023-01-13T12:40:19.270Z,100191.78
2023-01-13T12:43:29.646Z,100196.75
2023-01-13T12:46:18.976Z,100204.63
2023-01-13T12:48:54.686Z,100206.03
2023-01-13T12:51:27.366Z,100207.44
2023-01-13T12:53:54.886Z,100205.13
2023-01-13T12:56:36.743Z,100208.03
2023-01-13T12:59:21.470Z,100207.44
2023-01-13T13:01:50.596Z,100208.94
2023-01-13T13:04:41.343Z,100209.72
2023-01-13T13:07:17.316Z,100211.75
2023-01-13T13:09:49.401Z,100215.06
2023-01-13T13:13:00.186Z,100209.53
2023-01-13T13:15:34.326Z,100214.50
2023-01-13T13:18:21.980Z,100212.28
2023-01-13T13:21:05.734Z,100217.94
2023-01-13T13:23:45.857Z,100203.38
2023-01-13T13:26:21.395Z,100218.34
2023-01-13T13:28:57.180Z,100220.88
2023-01-13T13:31:47.089Z,100228.16
2023-01-13T13:34:28.974Z,100220.84
2023-01-13T13:37:17.141Z,100228.72
2023-01-13T13:40:03.408Z,100225.41
2023-01-13T13:42:56.861Z,100229.56
2023-01-13T13:45:44.954Z,100234.97
2023-01-13T13:48:23.787Z,100241.84
2023-01-13T13:50:57.081Z,100243.69
2023-01-13T13:53:27.171Z,100244.53
2023-01-13T13:56:02.238Z,100248.28
2023-01-13T13:58:31.372Z,100239.53
2023-01-13T14:00:59.699Z,100241.84
2023-01-13T14:03:32.051Z,100245.19
2023-01-13T14:06:01.386Z,100245.81
2023-01-13T14:08:31.202Z,100247.94
2023-01-13T14:10:57.771Z,100252.75
2023-01-13T14:13:27.109Z,100257.13
2023-01-13T14:16:04.939Z,100251.91
2023-01-13T14:18:40.198Z,100258.38
2023-01-13T14:21:25.412Z,100260.59
2023-01-13T14:23:55.869Z,100261.78
2023-01-13T14:26:27.810Z,100260.97
2023-01-13T14:28:56.421Z,100282.16
2023-01-13T14:31:23.300Z,100266.53
2023-01-13T14:33:53.333Z,100274.25
2023-01-13T14:36:36.657Z,100277.16
2023-01-13T14:39:03.171Z,100271.09
2023-01-13T14:41:39.737Z,100267.72
2023-01-13T14:44:21.409Z,100272.03
2023-01-13T14:46:48.887Z,100273.47
2023-01-13T14:49:24.549Z,100271.19
2023-01-13T14:51:51.860Z,100269.50
2023-01-13T14:54:51.234Z,100266.81
2023-01-13T14:57:39.460Z,100269.94
2023-01-13T15:00:21.367Z,100274.09
2023-01-13T15:02:57.145Z,100273.25
2023-01-13T15:05:26.441Z,100263.50
2023-01-13T15:07:59.350Z,100264.72
2023-01-13T15:10:32.699Z,100277.41
2023-01-13T15:13:03.027Z,100281.56
2023-01-13T15:15:35.330Z,100280.31
2023-01-13T15:18:09.266Z,100282.81
2023-01-13T15:20:35.833Z,100284.69
2023-01-13T15:23:02.408Z,100281.97
2023-01-13T15:25:33.597Z,100285.88
2023-01-13T15:28:00.444Z,100294.59
2023-01-13T15:30:27.980Z,100290.44
2023-01-13T15:32:56.604Z,100290.84
2023-01-13T15:35:25.598Z,100300.41
2023-01-13T15:37:54.439Z,100294.56
2023-01-13T15:40:32.400Z,100309.72
2023-01-13T15:43:17.624Z,100306.44
2023-01-13T15:46:04.474Z,100304.06
2023-01-13T15:48:32.867Z,100310.56
2023-01-13T15:51:00.430Z,100314.72
2023-01-13T15:53:28.001Z,100302.66
2023-01-13T15:55:57.696Z,100306.56
2023-01-13T15:58:29.661Z,100311.34
2023-01-13T16:00:56.283Z,100313.00
2023-01-13T16:03:23.064Z,100299.91
2023-01-13T16:05:49.723Z,100303.44
2023-01-13T16:08:18.786Z,100303.50
2023-01-13T16:10:46.078Z,100311.97
2023-01-13T16:13:13.559Z,100308.44
2023-01-13T16:15:44.384Z,100309.91
2023-01-13T16:18:17.354Z,100310.88
2023-01-13T16:20:44.601Z,100320.00
2023-01-13T16:23:12.196Z,100328.78
2023-01-13T16:25:40.434Z,100328.78
2023-01-13T16:28:07.040Z,100320.47
2023-01-13T16:30:36.565Z,100330.44
2023-01-13T16:33:03.694Z,100325.94
2023-01-13T16:35:32.206Z,100330.72
2023-01-13T16:37:59.840Z,100331.34
2023-01-13T16:40:31.054Z,100333.63
2023-01-13T16:42:58.106Z,100343.16
2023-01-13T16:45:25.134Z,100343.75
2023-01-13T16:47:51.786Z,100348.09
2023-01-13T16:50:33.478Z,100352.22
2023-01-13T16:53:00.125Z,100362.56
2023-01-13T16:55:27.730Z,100362.63
2023-01-13T16:57:55.016Z,100362.00
2023-01-13T17:00:22.345Z,100371.56
2023-01-13T17:02:49.161Z,100376.34
2023-01-13T17:05:16.432Z,100368.03
2023-01-13T17:07:44.783Z,100384.69
2023-01-13T17:10:17.707Z,100399.00
2023-01-13T17:12:44.350Z,100400.44
2023-01-13T17:15:13.131Z,100395.88
2023-01-13T17:17:41.525Z,100401.69
2023-01-13T17:20:10.539Z,100400.25
2023-01-13T17:22:37.089Z,100403.34
2023-01-13T17:25:04.390Z,100415.63
2023-01-13T17:27:31.108Z,100425.38
2023-01-13T17:29:57.715Z,100417.28
2023-01-13T17:32:24.592Z,100424.53
2023-01-13T17:34:52.025Z,100434.31
2023-01-13T17:37:18.679Z,100427.25
2023-01-13T17:39:46.451Z,100422.88
2023-01-13T17:42:14.333Z,100433.28
2023-01-13T17:44:40.984Z,100432.84
2023-01-13T17:47:08.497Z,100435.97
2023-01-13T17:49:35.044Z,100443.66
2023-01-13T17:52:01.580Z,100452.19
2023-01-13T17:54:28.144Z,100452.84
2023-01-13T17:56:56.477Z,100460.75
2023-01-13T17:59:24.340Z,100462.22
2023-01-13T18:01:51.985Z,100466.41
2023-01-13T18:04:24.269Z,100452.50
2023-01-13T18:06:51.522Z,100465.38
2023-01-13T18:09:18.152Z,100465.97
2023-01-13T18:11:47.140Z,100460.75
2023-01-13T18:14:14.150Z,100459.91
2023-01-13T18:16:40.923Z,100461.78
2023-01-13T18:19:26.306Z,100474.38
2023-01-13T18:22:12.213Z,100479.38
2023-01-13T18:24:57.766Z,100476.03
2023-01-13T18:27:32.472Z,100473.53
2023-01-13T18:30:01.106Z,100484.34
2023-01-13T18:32:32.924Z,100481.66
2023-01-13T18:35:06.127Z,100481.44
2023-01-13T18:37:36.126Z,100478.47
2023-01-13T18:40:04.125Z,100487.88
2023-01-13T18:42:49.409Z,100484.34
2023-01-13T18:45:15.976Z,100497.19
2023-01-13T18:47:42.710Z,100494.38
2023-01-13T18:50:12.259Z,100501.25
2023-01-13T18:52:38.880Z,100499.25
2023-01-13T18:55:05.896Z,100507.97
2023-01-13T18:57:33.421Z,100505.28
2023-01-13T19:00:01.045Z,100506.31
2023-01-13T19:02:30.021Z,100502.78
2023-01-13T19:04:57.329Z,100503.97
2023-01-13T19:07:28.370Z,100500.06
2023-01-13T19:09:56.065Z,100503.81
2023-01-13T19:12:26.452Z,100510.22
2023-01-13T19:14:59.959Z,100518.41
2023-01-13T19:17:31.275Z,100511.06
2023-01-13T19:19:59.015Z,100510.50
2023-01-13T19:22:30.217Z,100520.91
2023-01-13T19:24:58.214Z,100519.25
2023-01-13T19:27:24.989Z,100523.34
2023-01-13T19:29:53.758Z,100531.28
2023-01-13T19:32:22.072Z,100529.03
2023-01-13T19:34:50.723Z,100534.16
2023-01-13T19:37:17.363Z,100541.69
2023-01-13T19:39:44.152Z,100540.38
2023-01-13T19:42:32.458Z,100538.22
2023-01-13T19:45:17.860Z,100543.56
2023-01-13T19:47:45.762Z,100543.28
2023-01-13T19:50:13.774Z,100550.53
2023-01-13T19:52:41.683Z,100554.44
2023-01-13T19:55:09.501Z,100557.72
2023-01-13T19:57:36.647Z,100554.91
2023-01-13T20:00:05.535Z,100560.84
2023-01-13T20:02:32.143Z,100563.19
2023-01-13T20:05:01.963Z,100566.53
2023-01-13T20:07:30.537Z,100560.41
2023-01-13T20:09:57.268Z,100565.22
2023-01-13T20:12:28.562Z,100567.69
2023-01-13T20:14:55.499Z,100562.53
2023-01-13T20:17:22.426Z,100565.16
2023-01-13T20:19:48.979Z,100565.59
2023-01-13T20:22:15.641Z,100570.16
2023-01-13T20:24:42.287Z,100578.09
2023-01-13T20:27:08.876Z,100587.69
2023-01-13T20:29:35.718Z,100580.41
2023-01-13T20:32:03.030Z,100592.88
2023-01-13T20:34:29.804Z,100600.16
2023-01-13T20:36:56.496Z,100594.56
2023-01-13T20:39:25.829Z,100602.06
2023-01-13T20:42:11.152Z,100600.16
2023-01-13T20:44:37.739Z,100600.72
2023-01-13T20:47:04.732Z,100600.16
2023-01-13T20:49:31.330Z,100594.94
2023-01-13T20:51:58.181Z,100587.69
2023-01-13T20:54:25.058Z,100590.84
2023-01-13T20:56:51.820Z,100585.03
2023-01-13T20:59:18.475Z,100591.28
2023-01-13T21:01:45.048Z,100597.34
2023-01-13T21:04:11.846Z,100601.25
2023-01-13T21:06:38.516Z,100601.03
2023-01-13T21:09:05.123Z,100608.31
2023-01-13T21:11:50.190Z,100619.78
2023-01-13T21:14:40.422Z,100622.50
2023-01-13T21:17:08.179Z,100618.28
2023-01-13T21:19:34.717Z,100627.22
2023-01-13T21:22:01.326Z,100622.50
2023-01-13T21:24:27.938Z,100617.09
2023-01-13T21:27:00.607Z,100621.47
2023-01-13T21:29:27.149Z,100623.31
2023-01-13T21:31:54.418Z,100616.06
2023-01-13T21:34:21.037Z,100622.50
2023-01-13T21:36:47.545Z,100622.50
2023-01-13T21:39:15.980Z,100636.00
2023-01-13T21:42:01.001Z,100623.31
2023-01-13T21:44:46.167Z,100638.50
2023-01-13T21:47:34.055Z,100639.88
2023-01-13T21:50:01.539Z,100646.31
2023-01-13T21:52:28.515Z,100642.59
2023-01-13T21:55:13.656Z,100651.19
2023-01-13T21:57:40.229Z,100651.38
2023-01-13T22:00:07.459Z,100644.94
2023-01-13T22:02:35.746Z,100649.50
2023-01-13T22:05:04.055Z,100647.63
2023-01-13T22:07:34.423Z,100648.28
2023-01-13T22:10:01.085Z,100652.84
2023-01-13T22:12:29.427Z,100667.81
2023-01-13T22:14:56.805Z,100670.91
2023-01-13T22:17:25.574Z,100666.53
2023-01-13T22:19:54.820Z,100663.66
2023-01-13T22:22:22.102Z,100667.38
2023-01-13T22:24:50.405Z,100661.78
2023-01-13T22:27:19.743Z,100662.81
2023-01-13T22:29:47.612Z,100667.94
2023-01-13T22:32:15.943Z,100668.06
2023-01-13T22:34:42.621Z,100675.13
2023-01-13T22:37:09.347Z,100675.03
2023-01-13T22:39:36.359Z,100680.03
2023-01-13T22:42:03.776Z,100693.44
2023-01-13T22:44:30.419Z,100689.91
2023-01-13T22:46:56.948Z,100688.06
2023-01-13T22:49:23.545Z,100696.63
2023-01-13T22:51:50.154Z,100691.22
2023-01-13T22:54:18.508Z,100693.34
2023-01-13T22:56:45.041Z,100698.66
2023-01-13T22:59:14.394Z,100706.19
2023-01-13T23:01:42.145Z,100715.13
2023-01-13T23:04:12.990Z,100713.91
2023-01-13T23:06:40.311Z,100718.03
2023-01-13T23:09:07.832Z,100716.81
2023-01-13T23:11:35.237Z,100711.59
2023-01-13T23:14:07.812Z,100722.28
2023-01-13T23:16:37.100Z,100722.59
2023-01-13T23:19:04.790Z,100725.00
2023-01-13T23:21:34.512Z,100722.97
2023-01-13T23:24:01.104Z,100728.38
2023-01-13T23:26:28.983Z,100722.59
2023-01-13T23:29:08.456Z,100727.16
2023-01-13T23:31:35.200Z,100730.03
2023-01-13T23:34:01.916Z,100734.03
2023-01-13T23:36:29.381Z,100729.84
2023-01-13T23:38:58.129Z,100735.44
2023-01-13T23:41:26.212Z,100728.63
2023-01-13T23:44:01.692Z,100729.28
2023-01-13T23:46:30.200Z,100732.63
2023-01-13T23:48:56.852Z,100738.50
2023-01-13T23:51:25.222Z,100745.78
2023-01-13T23:53:51.992Z,100739.72
2023-01-13T23:56:30.597Z,100747.66
2023-01-13T23:58:57.444Z,100753.41
